Time;durP1;ratioP1;P1;durP2;ratioP2;P2;SDS_P1;SDS_P2;PMS_P1;PMS_P2;Temp;Humidity;BMP_temperature;BMP_pressure;BME280_temperature;BME280_humidity;BME280_pressure;Samples;Min_cycle;Max_cycle;Signal;HPM_P1;HPM_P2
2024/03/30 00:00:52;;;;;;;146.07;19.15;;;13.60;95.50;;;;;;4960587;28;20034;-82
2024/03/30 00:03:18;;;;;;;115.40;18.00;;;13.60;95.50;;;;;;4961600;28;21402;-82
2024/03/30 00:05:44;;;;;;;127.32;17.85;;;13.60;95.50;;;;;;4960147;28;20031;-82
2024/03/30 00:08:10;;;;;;;137.25;21.08;;;13.60;95.50;;;;;;4959408;28;20039;-82
2024/03/30 00:10:36;;;;;;;126.18;15.57;;;13.60;95.60;;;;;;4940983;28;20502;-82
2024/03/30 00:13:03;;;;;;;107.65;16.00;;;13.60;95.60;;;;;;4959882;28;20027;-83
2024/03/30 00:15:29;;;;;;;129.80;16.38;;;13.50;95.80;;;;;;4961497;28;20348;-82
2024/03/30 00:17:55;;;;;;;139.63;17.40;;;13.50;95.70;;;;;;4942451;28;20042;-82
2024/03/30 00:20:23;;;;;;;136.25;18.63;;;13.50;95.90;;;;;;4962551;28;20096;-82
2024/03/30 00:22:49;;;;;;;117.13;16.98;;;13.50;96.30;;;;;;4961135;28;20023;-83
2024/03/30 00:25:16;;;;;;;115.00;18.23;;;13.40;96.10;;;;;;4942228;28;20035;-82
2024/03/30 00:27:41;;;;;;;112.85;18.30;;;13.40;96.40;;;;;;4958432;28;20068;-82
2024/03/30 00:30:08;;;;;;;131.77;19.48;;;13.40;95.90;;;;;;4960513;28;20027;-82
2024/03/30 00:32:33;;;;;;;122.18;15.70;;;13.40;95.70;;;;;;4959727;28;20066;-82
2024/03/30 00:34:59;;;;;;;129.63;19.75;;;13.30;95.80;;;;;;4957613;28;20078;-82
2024/03/30 00:37:24;;;;;;;116.30;17.40;;;13.30;96.00;;;;;;4959498;28;20074;-82
2024/03/30 00:39:50;;;;;;;140.90;20.23;;;13.30;96.10;;;;;;4957106;28;20054;-82
2024/03/30 00:42:16;;;;;;;138.05;18.38;;;13.30;96.10;;;;;;4939609;28;20038;-82
2024/03/30 00:44:41;;;;;;;129.77;17.00;;;13.20;96.40;;;;;;4958281;28;20735;-82
2024/03/30 00:47:07;;;;;;;129.65;19.10;;;13.20;96.50;;;;;;4956500;28;20113;-83
2024/03/30 00:49:32;;;;;;;136.77;17.05;;;13.20;96.60;;;;;;4957469;28;20102;-82
2024/03/30 00:51:58;;;;;;;120.78;16.25;;;13.20;96.40;;;;;;4957524;28;20433;-82
2024/03/30 00:54:23;;;;;;;138.32;20.40;;;13.10;96.40;;;;;;4957801;28;21408;-82
2024/03/30 00:56:49;;;;;;;137.35;17.52;;;13.10;96.50;;;;;;4957946;28;20030;-82
2024/03/30 00:59:14;;;;;;;108.15;17.40;;;13.10;96.70;;;;;;4957765;28;20025;-82
2024/03/30 01:01:40;;;;;;;128.93;16.58;;;13.10;96.70;;;;;;4959092;28;20019;-82
2024/03/30 01:04:05;;;;;;;140.60;16.25;;;13.00;96.80;;;;;;4938854;28;20035;-82
2024/03/30 01:06:31;;;;;;;134.27;17.85;;;13.00;97.10;;;;;;4957504;28;20031;-82
2024/03/30 01:08:56;;;;;;;138.02;15.98;;;13.00;96.80;;;;;;4956132;28;20043;-82
2024/03/30 01:11:22;;;;;;;131.10;18.67;;;12.90;96.80;;;;;;4939041;28;20102;-82
2024/03/30 01:13:48;;;;;;;129.35;18.08;;;12.90;97.00;;;;;;4956702;28;20058;-82
2024/03/30 01:16:14;;;;;;;104.95;15.57;;;12.90;97.20;;;;;;4955658;28;20035;-82
2024/03/30 01:18:40;;;;;;;114.35;16.83;;;12.80;96.80;;;;;;4955251;28;20049;-82
2024/03/30 01:21:06;;;;;;;136.63;19.77;;;12.80;96.90;;;;;;4956382;28;20095;-82
2024/03/30 01:23:31;;;;;;;140.70;17.75;;;12.80;97.00;;;;;;4956277;28;20036;-82
2024/03/30 01:25:58;;;;;;;116.93;17.90;;;12.80;96.50;;;;;;4955563;28;20042;-82
2024/03/30 01:28:27;;;;;;;123.97;16.80;;;12.70;96.60;;;;;;4957258;28;20063;-81
2024/03/30 01:30:53;;;;;;;107.45;15.55;;;12.70;96.40;;;;;;4955905;28;20031;-83
2024/03/30 01:33:19;;;;;;;127.07;17.20;;;12.70;96.80;;;;;;4957710;28;20094;-83
2024/03/30 01:35:44;;;;;;;128.23;15.65;;;12.70;96.40;;;;;;4958201;28;20095;-82
2024/03/30 01:38:10;;;;;;;130.75;16.67;;;12.70;96.20;;;;;;4957785;28;20061;-83
2024/03/30 01:40:37;;;;;;;132.80;15.32;;;12.70;96.40;;;;;;4958184;28;20023;-82
2024/03/30 01:43:03;;;;;;;124.85;16.33;;;12.70;96.50;;;;;;4957039;28;20515;-82
2024/03/30 01:45:34;;;;;;;126.00;15.63;;;12.70;96.10;;;;;;4955982;28;20027;-83
2024/03/30 01:48:06;;;;;;;122.28;17.48;;;12.80;96.70;;;;;;4957846;28;20054;-82
2024/03/30 01:50:33;;;;;;;106.65;14.05;;;12.80;96.40;;;;;;4956181;28;20646;-82
2024/03/30 01:53:01;;;;;;;123.20;16.45;;;12.80;96.30;;;;;;4957227;28;20038;-82
2024/03/30 01:55:28;;;;;;;119.30;18.00;;;12.80;96.10;;;;;;4957685;28;20781;-82
2024/03/30 01:57:56;;;;;;;130.57;14.30;;;12.80;95.90;;;;;;4958916;28;20041;-82
2024/03/30 02:00:22;;;;;;;123.15;16.40;;;12.90;96.00;;;;;;4957943;28;20023;-82
2024/03/30 02:02:52;;;;;;;127.45;17.08;;;12.90;96.00;;;;;;4958939;28;20035;-83
2024/03/30 02:05:21;;;;;;;124.55;15.82;;;12.90;95.70;;;;;;4957051;28;20035;-83
2024/03/30 02:07:47;;;;;;;112.25;14.82;;;13.00;95.30;;;;;;4960015;28;20031;-82
2024/03/30 02:10:13;;;;;;;98.53;13.73;;;13.00;95.00;;;;;;4961977;28;20027;-82
2024/03/30 02:12:42;;;;;;;107.70;12.98;;;13.10;94.80;;;;;;4962145;28;20044;-82
2024/03/30 02:15:08;;;;;;;109.80;15.52;;;13.10;94.70;;;;;;4961257;28;20054;-83
2024/03/30 02:17:34;;;;;;;108.82;13.98;;;13.20;94.80;;;;;;4961847;28;20058;-82
2024/03/30 02:20:00;;;;;;;119.38;15.43;;;13.20;94.70;;;;;;4961080;28;20094;-83
2024/03/30 02:22:25;;;;;;;97.97;14.00;;;13.20;94.50;;;;;;4960349;28;20110;-82
2024/03/30 02:24:51;;;;;;;104.78;14.23;;;13.20;94.60;;;;;;4961402;28;20484;-82
2024/03/30 02:27:17;;;;;;;92.82;13.85;;;13.30;94.40;;;;;;4961068;28;20051;-82
2024/03/30 02:29:45;;;;;;;94.05;13.80;;;13.30;94.60;;;;;;4961418;28;20102;-83
2024/03/30 02:32:11;;;;;;;93.03;13.07;;;13.30;94.50;;;;;;4959901;28;20027;-83
2024/03/30 02:34:37;;;;;;;98.30;13.40;;;13.30;94.50;;;;;;4962682;28;20035;-83
2024/03/30 02:37:04;;;;;;;108.82;13.80;;;13.30;94.80;;;;;;4962438;28;20026;-83
2024/03/30 02:39:29;;;;;;;104.35;12.30;;;13.30;94.50;;;;;;4961584;28;20035;-83
2024/03/30 02:41:55;;;;;;;88.80;12.45;;;13.30;94.80;;;;;;4961142;28;20062;-83
2024/03/30 02:44:20;;;;;;;109.43;14.23;;;13.30;94.80;;;;;;4959056;28;20085;-83
2024/03/30 02:46:47;;;;;;;88.75;14.27;;;13.20;95.00;;;;;;4961138;28;20031;-83
2024/03/30 02:49:14;;;;;;;98.13;12.85;;;13.20;95.00;;;;;;4959984;28;21457;-83
2024/03/30 02:51:39;;;;;;;91.85;12.00;;;13.20;95.30;;;;;;4959059;28;20046;-83
2024/03/30 02:54:05;;;;;;;93.20;12.35;;;13.10;95.60;;;;;;4960055;28;20035;-82
2024/03/30 02:56:32;;;;;;;103.90;13.23;;;13.10;95.60;;;;;;4943208;28;20115;-83
2024/03/30 02:58:58;;;;;;;103.35;13.18;;;13.10;95.70;;;;;;4961853;28;20034;-83
2024/03/30 03:01:23;;;;;;;89.53;11.50;;;13.00;95.90;;;;;;4960952;28;20083;-83
2024/03/30 03:03:49;;;;;;;87.40;12.05;;;13.00;96.30;;;;;;4960582;28;20723;-83
2024/03/30 03:06:15;;;;;;;92.35;11.05;;;13.00;95.80;;;;;;4960928;28;20102;-83
2024/03/30 03:08:40;;;;;;;92.82;15.20;;;12.90;95.90;;;;;;4960605;28;20031;-83
2024/03/30 03:11:06;;;;;;;82.15;12.60;;;12.90;96.00;;;;;;4961048;28;20027;-83
2024/03/30 03:13:31;;;;;;;88.30;11.50;;;12.90;96.20;;;;;;4961018;28;20518;-82
2024/03/30 03:16:02;;;;;;;92.15;11.85;;;12.90;96.20;;;;;;4959552;28;20387;-82
2024/03/30 03:18:27;;;;;;;89.43;11.75;;;12.90;96.00;;;;;;4962055;28;20054;-83
2024/03/30 03:20:53;;;;;;;74.35;10.18;;;12.80;96.00;;;;;;4961839;28;20838;-82
2024/03/30 03:23:18;;;;;;;93.43;11.63;;;12.80;96.00;;;;;;4959344;28;20054;-83
2024/03/30 03:25:44;;;;;;;83.47;10.95;;;12.80;96.10;;;;;;4941098;28;20109;-83
2024/03/30 03:28:09;;;;;;;79.97;10.60;;;12.80;96.40;;;;;;4960782;28;20050;-83
2024/03/30 03:30:35;;;;;;;83.32;11.38;;;12.80;96.50;;;;;;4963140;28;20035;-83
2024/03/30 03:33:00;;;;;;;75.57;12.05;;;12.80;96.70;;;;;;4960129;28;20026;-83
2024/03/30 03:35:26;;;;;;;97.28;12.80;;;12.70;96.80;;;;;;4960586;28;20333;-83
2024/03/30 03:37:52;;;;;;;87.03;10.57;;;12.60;96.90;;;;;;4959837;28;20377;-83
2024/03/30 03:40:17;;;;;;;86.22;13.15;;;12.60;97.00;;;;;;4960786;28;20539;-82
2024/03/30 03:42:43;;;;;;;89.60;11.05;;;12.60;97.50;;;;;;4943918;28;20118;-82
2024/03/30 03:45:08;;;;;;;94.32;11.45;;;12.60;97.10;;;;;;4961551;28;20059;-83
2024/03/30 03:47:34;;;;;;;95.50;13.77;;;12.50;97.00;;;;;;4961818;28;20155;-82
2024/03/30 03:50:00;;;;;;;84.63;10.98;;;12.50;97.10;;;;;;4959601;28;20027;-83
2024/03/30 03:52:26;;;;;;;89.57;12.15;;;12.50;97.40;;;;;;4943859;28;20023;-82
2024/03/30 03:54:51;;;;;;;71.47;11.20;;;12.40;97.50;;;;;;4960454;28;20030;-83
2024/03/30 03:57:17;;;;;;;96.38;12.60;;;12.40;98.10;;;;;;4960928;28;20031;-82
2024/03/30 03:59:43;;;;;;;78.25;10.55;;;12.30;97.80;;;;;;4960476;28;20043;-83
2024/03/30 04:02:08;;;;;;;83.93;12.93;;;12.30;97.80;;;;;;4958547;28;20033;-83
2024/03/30 04:04:34;;;;;;;90.03;13.25;;;12.30;98.00;;;;;;4959263;28;20077;-83
2024/03/30 04:06:59;;;;;;;85.13;10.18;;;12.30;97.90;;;;;;4942292;28;20033;-83
2024/03/30 04:09:25;;;;;;;80.35;9.63;;;12.30;98.00;;;;;;4959416;28;20089;-82
2024/03/30 04:11:50;;;;;;;77.45;10.63;;;12.30;97.90;;;;;;4959596;28;20073;-83
2024/03/30 04:14:16;;;;;;;69.22;9.75;;;12.30;98.00;;;;;;4959478;28;20078;-83
2024/03/30 04:16:41;;;;;;;70.03;9.50;;;12.30;97.80;;;;;;4941260;28;20034;-83
2024/03/30 04:19:07;;;;;;;76.47;10.93;;;12.30;97.80;;;;;;4958590;28;21530;-83
2024/03/30 04:21:32;;;;;;;78.65;10.32;;;12.20;98.40;;;;;;4960654;28;20886;-83
2024/03/30 04:23:58;;;;;;;76.70;10.10;;;12.20;98.30;;;;;;4961828;28;20284;-83
2024/03/30 04:26:26;;;;;;;71.93;11.43;;;12.20;98.90;;;;;;4959613;28;20126;-82
2024/03/30 04:28:51;;;;;;;71.70;10.18;;;12.10;98.50;;;;;;4959259;28;21036;-83
2024/03/30 04:31:17;;;;;;;75.28;10.02;;;12.00;98.90;;;;;;4959465;28;20083;-83
2024/03/30 04:33:42;;;;;;;86.97;12.00;;;12.00;99.00;;;;;;4960649;28;20034;-82
2024/03/30 04:36:08;;;;;;;82.60;10.35;;;12.00;99.20;;;;;;4958821;28;20039;-83
2024/03/30 04:38:34;;;;;;;66.30;9.85;;;11.90;99.50;;;;;;4961000;28;20035;-82
2024/03/30 04:41:04;;;;;;;80.68;10.13;;;12.00;98.20;;;;;;4959948;28;20035;-82
2024/03/30 04:43:31;;;;;;;74.28;9.95;;;12.00;98.00;;;;;;4959200;28;20026;-83
2024/03/30 04:45:58;;;;;;;69.43;9.73;;;12.10;98.00;;;;;;4958160;28;20041;-82
2024/03/30 04:48:25;;;;;;;63.25;8.60;;;12.10;98.60;;;;;;4961097;28;21557;-82
2024/03/30 04:50:51;;;;;;;59.03;7.68;;;12.10;97.80;;;;;;4959952;28;20046;-83
2024/03/30 04:53:24;;;;;;;73.65;9.30;;;12.20;97.60;;;;;;4955824;28;20043;-83
2024/03/30 04:55:57;;;;;;;77.25;8.75;;;12.20;97.40;;;;;;4955658;28;20024;-82
2024/03/30 04:58:27;;;;;;;65.68;8.13;;;12.30;97.50;;;;;;4959240;28;20497;-82
2024/03/30 05:00:54;;;;;;;76.45;8.98;;;12.30;97.30;;;;;;4956787;28;20177;-83
2024/03/30 05:03:20;;;;;;;73.70;8.13;;;12.40;97.00;;;;;;4957261;28;20031;-83
2024/03/30 05:05:47;;;;;;;68.25;9.13;;;12.40;96.90;;;;;;4956464;28;20054;-83
2024/03/30 05:08:13;;;;;;;61.53;9.35;;;12.50;96.80;;;;;;4957936;28;20035;-82
2024/03/30 05:10:40;;;;;;;74.80;9.20;;;12.50;96.80;;;;;;4959223;28;20516;-82
2024/03/30 05:13:06;;;;;;;61.63;9.20;;;12.60;96.20;;;;;;4961220;28;20035;-82
2024/03/30 05:15:40;;;;;;;75.30;9.57;;;12.60;96.60;;;;;;4958646;28;20027;-82
2024/03/30 05:18:07;;;;;;;60.80;10.68;;;12.60;97.00;;;;;;4958117;28;20514;-83
2024/03/30 05:20:49;;;;;;;65.70;9.27;;;12.60;96.70;;;;;;4942741;28;20023;-83
2024/03/30 05:23:24;;;;;;;67.20;8.80;;;12.60;96.60;;;;;;4958092;28;20032;-82
2024/03/30 05:25:51;;;;;;;65.55;9.77;;;12.60;96.70;;;;;;4942608;28;20054;-82
2024/03/30 05:28:19;;;;;;;61.72;8.10;;;12.60;97.00;;;;;;4954511;28;20085;-74
2024/03/30 05:30:47;;;;;;;68.93;9.32;;;12.60;97.10;;;;;;4954854;28;20030;-74
2024/03/30 05:33:13;;;;;;;67.28;9.38;;;12.60;97.20;;;;;;4954735;28;20153;-74
2024/03/30 05:35:39;;;;;;;58.05;9.30;;;12.60;97.10;;;;;;4958360;28;20114;-82
2024/03/30 05:38:05;;;;;;;66.05;12.57;;;12.60;97.20;;;;;;4959773;28;20771;-83
2024/03/30 05:40:32;;;;;;;70.82;10.60;;;12.60;97.50;;;;;;4960600;28;20031;-82
2024/03/30 05:43:00;;;;;;;63.75;9.20;;;12.60;97.70;;;;;;4962423;28;20050;-82
2024/03/30 05:45:27;;;;;;;70.85;9.52;;;12.60;97.20;;;;;;4961899;28;20031;-82
2024/03/30 05:47:53;;;;;;;54.47;7.75;;;12.60;97.60;;;;;;4962343;28;20026;-84
2024/03/30 05:50:19;;;;;;;58.58;9.85;;;12.60;97.20;;;;;;4963004;28;20165;-83
2024/03/30 05:52:45;;;;;;;68.35;8.05;;;12.70;97.70;;;;;;4961355;28;20029;-82
2024/03/30 05:55:11;;;;;;;71.82;10.70;;;12.70;97.60;;;;;;4946143;28;20026;-83
2024/03/30 05:57:36;;;;;;;73.32;7.95;;;12.70;97.30;;;;;;4962459;28;20479;-82
2024/03/30 06:00:02;;;;;;;75.93;9.40;;;12.80;97.70;;;;;;4962358;28;20122;-83
2024/03/30 06:02:28;;;;;;;56.13;7.28;;;12.80;97.40;;;;;;4962804;28;20022;-82
2024/03/30 06:04:53;;;;;;;75.45;9.35;;;12.90;97.00;;;;;;4964028;28;20070;-82
2024/03/30 06:07:19;;;;;;;57.45;7.82;;;13.00;97.40;;;;;;4962489;28;20380;-82
2024/03/30 06:09:44;;;;;;;63.05;8.82;;;13.00;97.30;;;;;;4962455;28;20019;-83
2024/03/30 06:12:10;;;;;;;52.97;7.70;;;13.10;97.10;;;;;;4959775;28;20097;-83
2024/03/30 06:14:36;;;;;;;73.15;10.32;;;13.10;97.00;;;;;;4960125;28;20046;-83
2024/03/30 06:17:01;;;;;;;61.92;8.75;;;13.20;96.20;;;;;;4961407;28;20365;-83
2024/03/30 06:19:27;;;;;;;65.85;8.02;;;13.30;96.30;;;;;;4961182;28;20027;-83
2024/03/30 06:21:52;;;;;;;73.85;8.57;;;13.30;96.10;;;;;;4942458;28;20095;-83
2024/03/30 06:24:18;;;;;;;71.47;9.98;;;13.40;96.30;;;;;;4960747;28;20027;-83
2024/03/30 06:26:43;;;;;;;74.10;8.82;;;13.50;95.80;;;;;;4962744;28;20034;-83
2024/03/30 06:29:10;;;;;;;69.53;9.73;;;13.50;95.60;;;;;;4963805;28;20031;-83
2024/03/30 06:31:36;;;;;;;72.18;9.07;;;13.60;95.40;;;;;;4962851;28;20081;-84
2024/03/30 06:34:05;;;;;;;63.03;8.90;;;13.70;95.60;;;;;;4944651;28;20124;-83
2024/03/30 06:36:34;;;;;;;61.55;8.82;;;13.70;95.80;;;;;;4960555;28;21545;-83
2024/03/30 06:39:00;;;;;;;63.80;8.85;;;13.80;95.60;;;;;;4961257;28;20031;-83
2024/03/30 06:44:10;;;;;;;68.68;9.50;;;13.80;95.60;;;;;;4962062;28;20806;-83
2024/03/30 06:46:36;;;;;;;52.30;9.25;;;13.80;96.10;;;;;;4962794;28;20108;-83
2024/03/30 06:49:01;;;;;;;72.07;10.52;;;13.70;95.70;;;;;;4961832;28;20209;-83
2024/03/30 06:51:27;;;;;;;64.20;9.80;;;13.70;95.70;;;;;;4960871;28;20470;-83
2024/03/30 06:53:52;;;;;;;70.93;9.05;;;13.70;96.00;;;;;;4962067;28;20098;-83
2024/03/30 06:56:18;;;;;;;65.50;9.32;;;13.60;95.90;;;;;;4960461;28;20123;-83
2024/03/30 06:58:43;;;;;;;74.97;10.40;;;13.60;96.20;;;;;;4962694;28;20059;-83
2024/03/30 07:01:09;;;;;;;66.75;9.18;;;13.50;96.10;;;;;;4962574;28;20041;-83
2024/03/30 07:03:35;;;;;;;66.90;10.23;;;13.60;96.00;;;;;;4962287;28;20027;-83
2024/03/30 07:06:00;;;;;;;70.68;9.60;;;13.50;96.30;;;;;;4957668;28;20345;-84
2024/03/30 07:08:26;;;;;;;67.07;8.57;;;13.50;96.20;;;;;;4958578;28;20039;-83
2024/03/30 07:10:52;;;;;;;74.60;10.02;;;13.50;96.20;;;;;;4960635;28;20039;-83
2024/03/30 07:13:17;;;;;;;69.30;10.30;;;13.50;96.10;;;;;;4956790;28;20575;-85
2024/03/30 07:15:43;;;;;;;53.97;8.15;;;13.50;96.80;;;;;;4956156;28;20039;-86
2024/03/30 07:18:08;;;;;;;73.55;9.90;;;13.40;96.70;;;;;;4957325;28;20035;-85
2024/03/30 07:20:34;;;;;;;66.30;10.20;;;13.40;97.00;;;;;;4956658;28;20035;-85
2024/03/30 07:22:59;;;;;;;65.20;8.43;;;13.40;96.60;;;;;;4961000;28;20019;-84
2024/03/30 07:25:26;;;;;;;59.60;9.20;;;13.40;96.90;;;;;;4956440;28;20109;-85
2024/03/30 07:27:51;;;;;;;68.70;8.88;;;13.50;96.90;;;;;;4943204;28;20038;-83
2024/03/30 07:30:17;;;;;;;68.55;10.05;;;13.50;97.30;;;;;;4960934;28;20776;-83
2024/03/30 07:32:42;;;;;;;56.53;9.68;;;13.50;97.40;;;;;;4959782;28;20047;-82
2024/03/30 07:35:08;;;;;;;70.18;13.32;;;13.50;97.10;;;;;;4961121;28;20030;-83
2024/03/30 07:37:37;;;;;;;65.28;9.55;;;13.60;97.30;;;;;;4959705;28;20042;-84
2024/03/30 07:40:03;;;;;;;72.40;9.15;;;13.70;97.50;;;;;;4960068;28;20027;-83
2024/03/30 07:42:29;;;;;;;61.67;10.88;;;13.80;98.20;;;;;;4962374;28;20023;-83
2024/03/30 07:44:55;;;;;;;67.35;10.18;;;13.80;98.20;;;;;;4962185;28;20085;-83
2024/03/30 07:47:21;;;;;;;66.28;8.88;;;13.90;98.30;;;;;;4956937;28;20039;-83
2024/03/30 07:49:47;;;;;;;70.65;8.95;;;14.00;98.80;;;;;;4957870;28;20066;-83
2024/03/30 07:52:12;;;;;;;58.67;7.75;;;14.10;98.10;;;;;;4956787;28;20046;-83
2024/03/30 07:54:38;;;;;;;62.63;8.52;;;14.30;97.70;;;;;;4941165;28;20815;-84
2024/03/30 07:57:04;;;;;;;76.78;10.13;;;14.40;97.60;;;;;;4957824;28;20607;-83
2024/03/30 07:59:30;;;;;;;65.22;11.02;;;14.50;97.50;;;;;;4957480;28;20162;-83
2024/03/30 08:01:56;;;;;;;66.25;9.25;;;14.60;97.00;;;;;;4958490;28;20023;-83
2024/03/30 08:04:22;;;;;;;63.58;8.05;;;14.80;96.60;;;;;;4956872;28;20054;-83
2024/03/30 08:06:49;;;;;;;59.75;8.77;;;14.90;96.60;;;;;;4937047;28;20119;-84
2024/03/30 08:09:15;;;;;;;65.05;8.20;;;14.90;96.80;;;;;;4956994;28;20034;-84
2024/03/30 08:11:44;;;;;;;52.65;7.85;;;15.00;96.70;;;;;;4957962;28;20780;-83
2024/03/30 08:14:11;;;;;;;72.60;7.80;;;15.10;96.50;;;;;;4955390;28;20040;-84
2024/03/30 08:16:36;;;;;;;55.28;7.93;;;15.20;96.70;;;;;;4956944;28;20022;-83
2024/03/30 08:19:08;;;;;;;55.95;7.20;;;15.20;97.00;;;;;;4956375;28;20040;-72
2024/03/30 08:21:34;;;;;;;54.45;7.60;;;15.30;96.70;;;;;;4959408;28;20042;-89
2024/03/30 08:24:00;;;;;;;67.80;9.07;;;15.40;97.50;;;;;;4955369;28;20035;-89
2024/03/30 08:26:25;;;;;;;57.35;8.13;;;15.60;96.60;;;;;;4956265;28;20067;-89
2024/03/30 08:28:51;;;;;;;63.50;9.40;;;15.70;96.80;;;;;;4957419;28;20035;-83
2024/03/30 08:31:18;;;;;;;55.40;7.70;;;16.00;95.60;;;;;;4955252;28;20023;-88
2024/03/30 08:33:43;;;;;;;62.40;8.68;;;16.20;95.90;;;;;;4955505;28;20030;-87
2024/03/30 08:36:09;;;;;;;61.60;9.10;;;16.40;95.00;;;;;;4959220;28;20027;-89
2024/03/30 08:38:35;;;;;;;49.63;7.28;;;16.60;94.90;;;;;;4961824;28;20046;-89
2024/03/30 08:41:01;;;;;;;61.63;8.82;;;16.80;93.60;;;;;;4960226;28;20117;-89
2024/03/30 08:43:27;;;;;;;70.95;8.05;;;17.00;92.80;;;;;;4958807;28;20062;-89
2024/03/30 08:45:53;;;;;;;58.08;7.05;;;17.20;92.40;;;;;;4956994;28;20118;-90
2024/03/30 08:48:19;;;;;;;72.63;9.52;;;17.30;92.10;;;;;;4959419;28;20146;-90
2024/03/30 08:50:49;;;;;;;67.57;8.65;;;17.50;91.70;;;;;;4961148;28;20027;-90
2024/03/30 08:53:14;;;;;;;64.15;9.23;;;17.70;91.60;;;;;;4963251;28;20023;-91
2024/03/30 08:55:40;;;;;;;70.90;9.10;;;17.80;91.70;;;;;;4958565;28;20023;-90
2024/03/30 08:58:07;;;;;;;68.85;7.82;;;18.10;91.70;;;;;;4961279;28;20035;-90
2024/03/30 09:00:33;;;;;;;62.78;7.95;;;18.30;90.40;;;;;;4954175;28;20094;-90
2024/03/30 09:02:59;;;;;;;53.95;7.80;;;18.50;90.10;;;;;;4940936;28;20652;-90
2024/03/30 09:05:28;;;;;;;60.92;8.63;;;18.70;89.50;;;;;;4954830;28;20031;-89
2024/03/30 09:07:54;;;;;;;71.80;7.97;;;18.90;88.50;;;;;;4954955;28;20062;-89
2024/03/30 09:10:21;;;;;;;60.40;7.57;;;19.00;90.10;;;;;;4957400;28;20031;-90
2024/03/30 09:12:47;;;;;;;68.78;8.63;;;19.20;90.30;;;;;;4939281;28;20030;-89
2024/03/30 09:15:13;;;;;;;55.53;8.18;;;19.30;88.70;;;;;;4957859;28;20794;-90
2024/03/30 09:17:38;;;;;;;69.95;7.47;;;19.30;86.60;;;;;;4962097;28;20079;-91
2024/03/30 09:20:05;;;;;;;73.13;8.75;;;19.40;88.40;;;;;;4964371;28;20074;-90
2024/03/30 09:22:30;;;;;;;67.72;9.57;;;19.60;84.40;;;;;;4963521;28;20042;-91
2024/03/30 09:24:57;;;;;;;64.38;7.07;;;19.60;83.80;;;;;;4964028;28;20145;-93
2024/03/30 09:27:25;;;;;;;60.58;6.72;;;19.80;85.40;;;;;;4962678;28;20035;-90
2024/03/30 09:29:50;;;;;;;55.47;7.38;;;20.00;80.90;;;;;;4963105;28;20023;-89
2024/03/30 09:32:16;;;;;;;62.40;7.78;;;20.10;81.10;;;;;;4962341;28;20054;-87
2024/03/30 09:34:42;;;;;;;71.13;9.23;;;20.20;80.10;;;;;;4957514;28;20828;-89
2024/03/30 09:37:08;;;;;;;51.90;7.13;;;20.50;81.00;;;;;;4957389;28;20035;-88
2024/03/30 09:39:35;;;;;;;67.15;7.93;;;20.60;80.30;;;;;;4957887;28;20035;-87
2024/03/30 09:42:05;;;;;;;67.80;8.38;;;20.80;80.20;;;;;;4957984;28;20043;-88
2024/03/30 09:44:31;;;;;;;49.53;7.85;;;21.10;80.60;;;;;;4960161;28;20447;-87
2024/03/30 09:46:57;;;;;;;48.03;6.65;;;21.30;79.20;;;;;;4939542;28;20132;-90
2024/03/30 09:49:24;;;;;;;58.38;8.13;;;21.40;78.30;;;;;;4956387;28;20031;-89
2024/03/30 09:51:50;;;;;;;63.08;7.85;;;21.60;75.70;;;;;;4957585;28;20550;-87
2024/03/30 09:54:16;;;;;;;69.10;7.63;;;21.60;76.50;;;;;;4956093;28;20023;-88
2024/03/30 09:56:45;;;;;;;56.88;7.47;;;21.80;76.30;;;;;;4957105;28;20030;-89
2024/03/30 09:59:11;;;;;;;66.97;7.22;;;21.90;74.60;;;;;;4959217;28;20027;-89
2024/03/30 10:01:37;;;;;;;45.17;7.68;;;22.10;74.60;;;;;;4959270;28;20031;-85
2024/03/30 10:04:03;;;;;;;69.15;8.93;;;22.30;74.40;;;;;;4941847;28;20038;-82
2024/03/30 10:06:34;;;;;;;51.47;7.82;;;22.40;73.50;;;;;;4956952;28;20122;-85
2024/03/30 10:09:04;;;;;;;70.57;8.20;;;22.30;73.90;;;;;;4956968;28;20122;-72
2024/03/30 10:11:34;;;;;;;65.18;7.93;;;22.30;74.80;;;;;;4955916;28;20027;-73
2024/03/30 10:14:15;;;;;;;42.10;6.13;;;22.50;74.40;;;;;;4955319;28;20030;-72
2024/03/30 10:16:45;;;;;;;51.45;7.28;;;22.60;71.80;;;;;;4954189;28;20033;-72
2024/03/30 10:19:13;;;;;;;59.58;7.45;;;22.70;72.20;;;;;;4955012;28;20034;-72
2024/03/30 10:21:38;;;;;;;55.13;8.27;;;22.70;71.10;;;;;;4955536;28;20055;-72
2024/03/30 10:24:05;;;;;;;59.65;8.57;;;22.80;72.90;;;;;;4955178;28;20491;-72
2024/03/30 10:26:35;;;;;;;52.15;7.63;;;23.00;72.70;;;;;;4954539;28;20027;-72
2024/03/30 10:29:01;;;;;;;53.22;7.68;;;23.00;70.70;;;;;;4956619;28;20031;-72
2024/03/30 10:31:26;;;;;;;56.58;6.75;;;23.20;74.80;;;;;;4955188;28;20061;-72
2024/03/30 10:33:54;;;;;;;59.88;8.45;;;23.60;68.40;;;;;;4953913;28;20038;-72
2024/03/30 10:36:20;;;;;;;57.88;8.00;;;23.50;71.20;;;;;;4953316;28;20027;-72
2024/03/30 10:38:45;;;;;;;60.65;7.47;;;23.50;68.80;;;;;;4954554;28;20404;-72
2024/03/30 10:41:10;;;;;;;44.67;6.85;;;23.70;69.90;;;;;;4955440;28;20042;-71
2024/03/30 10:43:36;;;;;;;58.10;7.07;;;23.80;69.60;;;;;;4954795;28;20084;-71
2024/03/30 10:46:02;;;;;;;56.85;6.43;;;23.90;68.80;;;;;;4953166;28;20158;-72
2024/03/30 10:48:29;;;;;;;55.80;6.85;;;23.90;70.50;;;;;;4952647;28;20043;-71
2024/03/30 10:50:56;;;;;;;42.80;6.43;;;23.80;70.60;;;;;;4952186;28;20035;-71
2024/03/30 10:53:21;;;;;;;49.33;6.65;;;23.80;69.00;;;;;;4954691;28;20930;-70
2024/03/30 10:55:47;;;;;;;58.63;7.05;;;23.90;67.50;;;;;;4954423;28;20023;-70
2024/03/30 10:58:13;;;;;;;48.88;8.20;;;24.00;68.20;;;;;;4953958;28;20031;-71
2024/03/30 11:00:41;;;;;;;48.05;7.28;;;24.10;69.70;;;;;;4953943;28;20566;-71
2024/03/30 11:03:08;;;;;;;57.47;7.00;;;24.10;68.50;;;;;;4953850;28;20054;-70
2024/03/30 11:05:35;;;;;;;49.90;7.35;;;24.00;69.90;;;;;;4956101;28;21506;-70
2024/03/30 11:08:02;;;;;;;47.05;6.18;;;24.00;66.10;;;;;;4953136;28;20042;-70
2024/03/30 11:10:29;;;;;;;;;;;24.00;66.50;;;;;;4955524;28;20043;-71
2024/03/30 11:12:54;;;;;;;;;;;24.00;66.20;;;;;;4955350;28;20104;-70
2024/03/30 11:15:21;;;;;;;;;;;24.00;66.80;;;;;;4953300;28;21463;-69
2024/03/30 11:17:49;;;;;;;;;;;24.00;67.60;;;;;;4955704;28;20504;-70
2024/03/30 11:20:17;;;;;;;;;;;24.00;66.80;;;;;;4955887;28;20042;-76
2024/03/30 11:22:52;;;;;;;;;;;24.10;67.10;;;;;;4953139;28;20116;-71
2024/03/30 11:25:19;;;;;;;;;;;24.30;66.10;;;;;;4952662;28;20100;-71
2024/03/30 11:27:55;;;;;;;42.20;5.80;;;24.40;65.90;;;;;;4952004;28;20141;-70
2024/03/30 11:30:27;;;;;;;;;;;24.60;66.80;;;;;;4953807;28;20043;-71
2024/03/30 11:33:00;;;;;;;;;;;24.80;67.20;;;;;;4954860;28;20795;-78
2024/03/30 11:35:27;;;;;;;;;;;24.80;64.20;;;;;;4952771;28;20188;-79
2024/03/30 11:37:54;;;;;;;;;;;24.80;64.40;;;;;;4954248;28;20530;-71
2024/03/30 11:40:36;;;;;;;;;;;25.00;63.70;;;;;;4953396;28;20513;-70
2024/03/30 11:43:25;;;;;;;;;;;25.30;63.20;;;;;;4954084;28;21411;-71
2024/03/30 11:45:51;;;;;;;;;;;25.50;62.00;;;;;;4954397;28;20030;-81
2024/03/30 11:48:17;;;;;;;;;;;25.30;64.30;;;;;;4953157;28;20056;-70
2024/03/30 11:50:44;;;;;;;;;;;25.20;62.80;;;;;;4954307;28;20068;-70
2024/03/30 11:53:16;;;;;;;;;;;25.20;64.50;;;;;;4954230;28;20118;-69
2024/03/30 11:55:48;;;;;;;;;;;25.10;64.10;;;;;;4951609;28;20116;-70
2024/03/30 11:58:17;;;;;;;;;;;25.10;61.20;;;;;;4953001;28;20041;-71
2024/03/30 12:01:00;;;;;;;;;;;25.30;60.50;;;;;;4953525;28;20049;-71
2024/03/30 12:03:27;;;;;;;;;;;25.40;62.70;;;;;;4953584;28;20037;-69
2024/03/30 12:05:53;;;;;;;;;;;25.30;63.60;;;;;;4953374;28;20036;-70
2024/03/30 12:08:23;;;;;;;;;;;25.20;62.50;;;;;;4951430;28;20047;-69
2024/03/30 12:10:58;;;;;;;;;;;25.30;61.00;;;;;;4953145;28;20044;-70
2024/03/30 12:13:28;;;;;;;;;;;25.40;61.50;;;;;;4953299;28;20033;-70
2024/03/30 12:15:55;;;;;;;56.75;7.55;;;25.50;61.50;;;;;;4952568;28;21541;-70
2024/03/30 12:18:22;;;;;;;47.85;7.20;;;25.60;61.60;;;;;;4952671;28;20045;-71
2024/03/30 12:20:49;;;;;;;48.65;7.75;;;25.60;62.40;;;;;;4952945;28;20117;-70
2024/03/30 12:23:17;;;;;;;;;;;25.80;61.30;;;;;;4952439;28;20053;-70
2024/03/30 12:25:47;;;;;;;;;;;25.90;61.20;;;;;;4953169;28;20044;-70
2024/03/30 12:28:12;;;;;;;;;;;25.80;61.00;;;;;;4935833;28;20139;-70
2024/03/30 12:30:41;;;;;;;;;;;25.60;59.80;;;;;;4952043;28;20050;-70
2024/03/30 12:33:07;;;;;;;;;;;25.40;60.60;;;;;;4955379;28;19925;-71
2024/03/30 12:35:34;;;;;;;;;;;25.50;61.20;;;;;;4952107;28;20067;-71
2024/03/30 12:37:59;;;;;;;;;;;25.70;62.10;;;;;;4952827;28;20039;-69
2024/03/30 12:40:29;;;;;;;;;;;25.80;63.00;;;;;;4952774;28;20397;-70